Time,TemperatureF,DewpointF,PressureIn,WindDirection,WindDirectionDegrees,WindSpeedMPH,WindSpeedGustMPH,Humidity,HourlyPrecipIn,Conditions,Clouds,dailyrainin,SolarRadiationWatts/m^2,SoftwareType,DateUTC
2013-04-04 00:00:00,29.3,17.9,30.37,SSE,159,5.8,5.8,62,0.00,CLR,,0.00,0.0,WeatherDisplay:10.37,2013-04-04 04:00:00,
2013-04-04 00:01:00,29.4,18.0,30.37,South,177,5.0,5.0,62,0.00,CLR,,0.00,0.0,WeatherDisplay:10.37,2013-04-04 04:01:00,
2013-04-04 00:06:00,29.9,18.1,30.37,South,182,6.9,6.9,61,0.00,CLR,,0.00,0.0,WeatherDisplay:10.37,2013-04-04 04:06:00,
2013-04-04 00:11:00,30.1,17.9,30.37,South,188,4.6,4.6,60,0.00,CLR,,0.00,0.0,WeatherDisplay:10.37,2013-04-04 04:11:00,
2013-04-04 00:16:00,30.2,18.0,30.37,South,187,5.8,5.8,60,0.00,CLR,,0.00,0.0,WeatherDisplay:10.37,2013-04-04 04:16:00,
2013-04-04 00:22:00,30.3,18.1,30.37,SSW,193,4.0,4.0,60,0.00,CLR,,0.00,0.0,WeatherDisplay:10.37,2013-04-04 04:22:00,
2013-04-04 00:27:00,30.3,18.1,30.37,South,187,5.8,5.8,60,0.00,CLR,,0.00,0.0,WeatherDisplay:10.37,2013-04-04 04:27:00,
2013-04-04 00:32:00,30.3,18.5,30.37,SSE,167,8.1,8.1,61,0.00,CLR,,0.00,0.0,WeatherDisplay:10.37,2013-04-04 04:32:00,
2013-04-04 00:37:00,30.3,18.8,30.37,South,183,8.1,8.1,62,0.00,CLR,,0.00,0.0,WeatherDisplay:10.37,2013-04-04 04:37:00,
2013-04-04 00:42:00,30.3,18.8,30.36,South,190,5.0,5.0,62,0.00,CLR,,0.00,0.0,WeatherDisplay:10.37,2013-04-04 04:42:00,
2013-04-04 00:47:00,30.3,19.2,30.36,South,191,5.8,5.8,63,0.00,CLR,,0.00,0.0,WeatherDisplay:10.37,2013-04-04 04:47:00,
2013-04-04 00:52:00,30.3,19.2,30.36,South,184,5.8,5.8,63,0.00,CLR,,0.00,0.0,WeatherDisplay:10.37,2013-04-04 04:52:00,
2013-04-04 00:57:00,30.2,19.1,30.36,South,175,6.0,6.0,63,0.00,CLR,,0.00,0.0,WeatherDisplay:10.37,2013-04-04 04:57:00,
2013-04-04 01:02:00,30.3,19.6,30.36,SSW,196,6.0,6.0,64,0.00,CLR,,0.00,0.0,WeatherDisplay:10.37,2013-04-04 05:02:00,
2013-04-04 01:07:00,30.3,19.6,30.36,SSW,198,5.0,5.0,64,0.00,CLR,,0.00,0.0,WeatherDisplay:10.37,2013-04-04 05:07:00,
2013-04-04 01:12:00,30.3,19.6,30.36,South,175,6.9,6.9,64,0.00,CLR,,0.00,0.0,WeatherDisplay:10.37,2013-04-04 05:12:00,
2013-04-04 01:17:00,30.4,19.7,30.36,South,190,9.2,9.2,64,0.00,CLR,,0.00,0.0,WeatherDisplay:10.37,2013-04-04 05:17:00,
2013-04-04 01:22:00,30.4,19.7,30.36,South,190,5.8,5.8,64,0.00,CLR,,0.00,0.0,WeatherDisplay:10.37,2013-04-04 05:22:00,
2013-04-04 01:27:00,30.4,20.0,30.36,SSW,208,6.9,6.9,65,0.00,CLR,,0.00,0.0,WeatherDisplay:10.37,2013-04-04 05:27:00,
2013-04-04 01:32:00,30.5,20.1,30.36,South,184,9.0,9.0,65,0.00,CLR,,0.00,0.0,WeatherDisplay:10.37,2013-04-04 05:32:00,
2013-04-04 01:37:00,30.5,20.1,30.36,South,171,8.1,8.1,65,0.00,CLR,,0.00,0.0,WeatherDisplay:10.37,2013-04-04 05:37:00,
2013-04-04 01:43:00,30.5,20.1,30.36,South,169,9.0,9.0,65,0.00,CLR,,0.00,0.0,WeatherDisplay:10.37,2013-04-04 05:43:00,
2013-04-04 01:48:00,30.5,19.8,30.36,SSW,198,8.1,8.1,64,0.00,CLR,,0.00,0.0,WeatherDisplay:10.37,2013-04-04 05:48:00,
2013-04-04 01:53:00,30.6,19.9,30.36,SSW,199,8.1,8.1,64,0.00,CLR,,0.00,0.0,WeatherDisplay:10.37,2013-04-04 05:53:00,
2013-04-04 01:58:00,30.6,19.9,30.36,SSW,196,6.9,6.9,64,0.00,CLR,,0.00,0.0,WeatherDisplay:10.37,2013-04-04 05:58:00,
2013-04-04 02:03:00,30.6,19.9,30.36,SSW,201,6.0,6.0,64,0.00,CLR,,0.00,0.0,WeatherDisplay:10.37,2013-04-04 06:03:00,
2013-04-04 02:08:00,30.5,19.4,30.36,South,188,8.1,8.1,63,0.00,CLR,,0.00,0.0,WeatherDisplay:10.37,2013-04-04 06:08:00,
2013-04-04 02:13:00,30.5,19.4,30.36,SSW,199,7.0,7.0,63,0.00,CLR,,0.00,0.0,WeatherDisplay:10.37,2013-04-04 06:13:00,
2013-04-04 02:18:00,30.5,19.4,30.35,SSW,192,6.9,6.9,63,0.00,CLR,,0.00,0.0,WeatherDisplay:10.37,2013-04-04 06:18:00,
2013-04-04 02:23:00,30.4,18.9,30.35,South,190,7.0,7.0,62,0.00,CLR,,0.00,0.0,WeatherDisplay:10.37,2013-04-04 06:23:00,
2013-04-04 02:28:00,30.5,18.6,30.35,South,182,9.2,9.2,61,0.00,CLR,,0.00,0.0,WeatherDisplay:10.37,2013-04-04 06:28:00,
2013-04-04 02:33:00,30.5,18.6,30.35,South,183,5.0,5.0,61,0.00,CLR,,0.00,0.0,WeatherDisplay:10.37,2013-04-04 06:33:00,
2013-04-04 02:38:00,30.5,18.3,30.35,South,189,8.1,8.1,60,0.00,CLR,,0.00,0.0,WeatherDisplay:10.37,2013-04-04 06:38:00,
2013-04-04 02:43:00,30.5,18.3,30.35,South,176,4.6,4.6,60,0.00,CLR,,0.00,0.0,WeatherDisplay:10.37,2013-04-04 06:43:00,
2013-04-04 02:48:00,30.3,18.1,30.34,South,179,3.5,3.5,60,0.00,CLR,,0.00,0.0,WeatherDisplay:10.37,2013-04-04 06:48:00,
2013-04-04 02:53:00,30.1,18.3,30.34,SSW,211,6.0,6.0,61,0.00,CLR,,0.00,0.0,WeatherDisplay:10.37,2013-04-04 06:53:00,
2013-04-04 02:58:00,29.9,18.1,30.34,South,190,4.6,4.6,61,0.00,CLR,,0.00,0.0,WeatherDisplay:10.37,2013-04-04 06:58:00,
2013-04-04 03:03:00,29.7,18.3,30.34,South,180,4.0,4.0,62,0.00,CLR,,0.00,0.0,WeatherDisplay:10.37,2013-04-04 07:03:00,
2013-04-04 03:08:00,29.6,18.2,30.33,South,177,5.8,5.8,62,0.00,CLR,,0.00,0.0,WeatherDisplay:10.37,2013-04-04 07:08:00,
2013-04-04 03:13:00,29.6,18.2,30.33,South,179,4.6,4.6,62,0.00,CLR,,0.00,0.0,WeatherDisplay:10.37,2013-04-04 07:13:00,
2013-04-04 03:18:00,29.6,18.2,30.33,South,180,5.8,5.8,62,0.00,CLR,,0.00,0.0,WeatherDisplay:10.37,2013-04-04 07:18:00,
2013-04-04 03:23:00,29.6,18.2,30.32,South,174,5.8,5.8,62,0.00,CLR,,0.00,0.0,WeatherDisplay:10.37,2013-04-04 07:23:00,
2013-04-04 03:28:00,29.6,18.2,30.32,SSW,192,6.0,6.0,62,0.00,CLR,,0.00,0.0,WeatherDisplay:10.37,2013-04-04 07:28:00,
2013-04-04 03:33:00,29.7,17.9,30.32,SSW,206,8.1,8.1,61,0.00,CLR,,0.00,0.0,WeatherDisplay:10.37,2013-04-04 07:33:00,
2013-04-04 03:38:00,29.8,18.0,30.32,South,188,8.1,8.1,61,0.00,CLR,,0.00,0.0,WeatherDisplay:10.37,2013-04-04 07:38:00,
2013-04-04 03:43:00,29.9,17.7,30.32,South,178,8.1,8.1,60,0.00,CLR,,0.00,0.0,WeatherDisplay:10.37,2013-04-04 07:43:00,
2013-04-04 03:48:00,29.9,17.7,30.32,South,182,8.1,8.1,60,0.00,CLR,,0.00,0.0,WeatherDisplay:10.37,2013-04-04 07:48:00,
2013-04-04 03:53:00,29.9,17.7,30.32,South,191,8.1,8.1,60,0.00,CLR,,0.00,0.0,WeatherDisplay:10.37,2013-04-04 07:53:00,
2013-04-04 03:58:00,29.9,17.3,30.32,South,175,6.9,6.9,59,0.00,CLR,,0.00,0.0,WeatherDisplay:10.37,2013-04-04 07:58:00,
2013-04-04 04:03:00,29.9,17.3,30.32,SSW,202,8.1,8.1,59,0.00,CLR,,0.00,0.0,WeatherDisplay:10.37,2013-04-04 08:03:00,
2013-04-04 04:08:00,29.8,17.2,30.31,South,188,6.9,6.9,59,0.00,CLR,,0.00,0.0,WeatherDisplay:10.37,2013-04-04 08:08:00,
2013-04-04 04:13:00,29.7,17.1,30.31,South,188,5.8,5.8,59,0.00,CLR,,0.00,0.0,WeatherDisplay:10.37,2013-04-04 08:13:00,
2013-04-04 04:18:00,29.8,16.8,30.31,South,184,8.1,8.1,58,0.00,CLR,,0.00,0.0,WeatherDisplay:10.37,2013-04-04 08:18:00,
2013-04-04 04:23:00,29.7,16.7,30.31,SSW,209,5.8,5.8,58,0.00,CLR,,0.00,0.0,WeatherDisplay:10.37,2013-04-04 08:23:00,
2013-04-04 04:28:00,29.8,16.8,30.31,SSW,197,8.1,8.1,58,0.00,CLR,,0.00,0.0,WeatherDisplay:10.37,2013-04-04 08:28:00,
2013-04-04 04:33:00,29.8,16.8,30.31,SSW,193,6.9,6.9,58,0.00,CLR,,0.00,0.0,WeatherDisplay:10.37,2013-04-04 08:33:00,
2013-04-04 04:38:00,29.8,16.8,30.31,South,184,11.5,11.5,58,0.00,CLR,,0.00,0.0,WeatherDisplay:10.37,2013-04-04 08:38:00,
2013-04-04 04:43:00,29.9,16.9,30.31,SW,219,10.0,10.0,58,0.00,CLR,,0.00,0.0,WeatherDisplay:10.37,2013-04-04 08:43:00,
2013-04-04 04:48:00,29.9,16.5,30.31,SSE,167,11.5,11.5,57,0.00,CLR,,0.00,0.0,WeatherDisplay:10.37,2013-04-04 08:48:00,
2013-04-04 04:53:00,30.1,16.7,30.31,SSW,196,12.7,12.7,57,0.00,CLR,,0.00,0.0,WeatherDisplay:10.37,2013-04-04 08:53:00,
2013-04-04 04:58:00,30.3,16.5,30.31,SSW,205,9.0,9.0,56,0.00,CLR,,0.00,0.0,WeatherDisplay:10.37,2013-04-04 08:58:00,
2013-04-04 05:03:00,30.4,16.6,30.31,South,180,9.2,9.2,56,0.00,CLR,,0.00,0.0,WeatherDisplay:10.37,2013-04-04 09:03:00,
2013-04-04 05:09:00,30.4,16.6,30.31,SSW,211,10.4,10.4,56,0.00,CLR,,0.00,0.0,WeatherDisplay:10.37,2013-04-04 09:09:00,
2013-04-04 05:15:00,30.4,16.6,30.31,SSW,205,10.0,10.0,56,0.00,CLR,,0.00,0.0,WeatherDisplay:10.37,2013-04-04 09:15:00,
2013-04-04 05:20:00,30.5,16.2,30.31,SSW,205,7.0,16.0,55,0.00,CLR,,0.00,0.0,WeatherDisplay:10.37,2013-04-04 09:20:00,
2013-04-04 05:25:00,30.5,16.7,30.30,SSW,202,7.0,14.0,56,0.00,CLR,,0.00,0.0,WeatherDisplay:10.37,2013-04-04 09:25:00,
2013-04-04 05:30:00,30.5,16.2,30.31,SW,224,11.5,11.5,55,0.00,CLR,,0.00,0.0,WeatherDisplay:10.37,2013-04-04 09:30:00,
2013-04-04 05:35:00,30.6,16.3,30.30,SSW,199,9.0,13.0,55,0.00,CLR,,0.00,0.0,WeatherDisplay:10.37,2013-04-04 09:35:00,
2013-04-04 05:40:00,30.6,16.3,30.30,SSW,203,8.0,15.0,55,0.00,CLR,,0.00,0.0,WeatherDisplay:10.37,2013-04-04 09:40:00,
2013-04-04 05:45:00,30.6,16.3,30.30,SSW,202,7.0,12.0,55,0.00,CLR,,0.00,0.0,WeatherDisplay:10.37,2013-04-04 09:45:00,
2013-04-04 05:50:00,30.6,16.3,30.30,SSW,194,11.5,11.5,55,0.00,CLR,,0.00,0.0,WeatherDisplay:10.37,2013-04-04 09:50:00,
2013-04-04 05:55:00,30.6,16.3,30.30,SSW,197,8.1,8.1,55,0.00,CLR,,0.00,0.0,WeatherDisplay:10.37,2013-04-04 09:55:00,
2013-04-04 06:00:00,30.6,15.9,30.29,SSW,198,7.0,13.0,54,0.00,CLR,,0.00,0.0,WeatherDisplay:10.37,2013-04-04 10:00:00,
2013-04-04 06:05:00,30.6,15.9,30.29,South,190,11.5,11.5,54,0.00,CLR,,0.00,0.0,WeatherDisplay:10.37,2013-04-04 10:05:00,
2013-04-04 06:10:00,30.7,15.6,30.29,SSW,207,8.1,8.1,53,0.00,CLR,,0.00,0.0,WeatherDisplay:10.37,2013-04-04 10:10:00,
2013-04-04 06:15:00,30.7,15.6,30.29,South,189,12.7,12.7,53,0.00,CLR,,0.00,0.0,WeatherDisplay:10.37,2013-04-04 10:15:00,
2013-04-04 06:20:00,30.7,15.6,30.30,SSW,203,10.4,10.4,53,0.00,CLR,,0.00,0.0,WeatherDisplay:10.37,2013-04-04 10:20:00,
2013-04-04 06:25:00,30.7,15.6,30.29,SSW,208,11.5,11.5,53,0.00,CLR,,0.00,0.0,WeatherDisplay:10.37,2013-04-04 10:25:00,
2013-04-04 06:30:00,30.7,15.6,30.29,South,187,12.7,12.7,53,0.00,CLR,,0.00,0.0,WeatherDisplay:10.37,2013-04-04 10:30:00,
2013-04-04 06:35:00,30.8,15.2,30.29,South,186,7.0,7.0,52,0.00,CLR,,0.00,0.0,WeatherDisplay:10.37,2013-04-04 10:35:00,
2013-04-04 06:40:00,30.8,15.2,30.29,SSW,210,9.2,9.2,52,0.00,CLR,,0.00,0.0,WeatherDisplay:10.37,2013-04-04 10:40:00,
2013-04-04 06:45:00,30.7,15.1,30.29,SW,223,10.4,10.4,52,0.00,CLR,,0.00,0.0,WeatherDisplay:10.37,2013-04-04 10:45:00,
2013-04-04 06:50:00,30.7,15.1,30.29,South,173,11.5,11.5,52,0.00,CLR,,0.00,0.0,WeatherDisplay:10.37,2013-04-04 10:50:00,
2013-04-04 06:55:00,45.7,18.9,30.17,SW,236,10.0,15.0,34,0.00,OVC,,0.00,715.0,WeatherDisplay:10.37,2013-04-04 10:55:00,
2013-04-04 06:56:00,30.7,15.1,30.29,SSW,207,8.0,8.0,52,0.00,CLR,,0.00,0.0,WeatherDisplay:10.37,2013-04-04 10:56:00,
2013-04-04 07:00:00,45.7,18.9,30.17,SW,225,10.0,15.0,34,0.00,OVC,,0.00,715.0,WeatherDisplay:10.37,2013-04-04 11:00:00,
2013-04-04 07:01:00,30.6,15.0,30.28,SSW,212,8.1,8.1,52,0.00,CLR,,0.00,0.0,WeatherDisplay:10.37,2013-04-04 11:01:00,
2013-04-04 07:05:00,46.8,19.9,30.16,SW,216,7.0,13.0,34,0.00,OVC,,0.00,753.0,WeatherDisplay:10.37,2013-04-04 11:05:00,
2013-04-04 07:06:00,30.6,15.0,30.28,SSW,197,10.0,10.0,52,0.00,CLR,,0.00,0.0,WeatherDisplay:10.37,2013-04-04 11:06:00,
2013-04-04 07:10:00,46.8,19.9,30.16,SSW,202,7.0,13.0,34,0.00,OVC,,0.00,753.0,WeatherDisplay:10.37,2013-04-04 11:10:00,
2013-04-04 07:12:00,30.6,15.0,30.28,SSW,195,10.4,10.4,52,0.00,CLR,,0.00,0.0,WeatherDisplay:10.37,2013-04-04 11:12:00,
2013-04-04 07:15:00,47.4,19.7,30.15,SSW,202,8.0,16.0,33,0.00,OVC,,0.00,765.0,WeatherDisplay:10.37,2013-04-04 11:15:00,
2013-04-04 07:17:00,30.5,14.9,30.28,South,184,9.2,9.2,52,0.00,CLR,,0.00,5.0,WeatherDisplay:10.37,2013-04-04 11:17:00,
2013-04-04 07:20:00,47.4,19.7,30.15,SSW,202,8.0,16.0,33,0.00,CLR,,0.00,765.0,WeatherDisplay:10.37,2013-04-04 11:20:00,
2013-04-04 07:22:00,30.5,14.9,30.28,South,188,8.1,8.1,52,0.00,CLR,,0.00,9.0,WeatherDisplay:10.37,2013-04-04 11:22:00,
2013-04-04 07:25:00,48.0,20.9,30.14,SW,214,9.0,15.0,34,0.00,CLR,,0.00,789.0,WeatherDisplay:10.37,2013-04-04 11:25:00,
2013-04-04 07:27:00,30.4,15.3,30.28,South,169,10.4,10.4,53,0.00,CLR,,0.00,12.0,WeatherDisplay:10.37,2013-04-04 11:27:00,
2013-04-04 07:30:00,48.0,20.9,30.14,SW,225,9.0,15.0,34,0.00,CLR,,0.00,789.0,WeatherDisplay:10.37,2013-04-04 11:30:00,
2013-04-04 07:32:00,30.4,15.3,30.27,South,172,6.9,6.9,53,0.00,CLR,,0.00,14.0,WeatherDisplay:10.37,2013-04-04 11:32:00,
2013-04-04 07:35:00,48.5,20.7,30.14,SW,236,8.0,15.0,33,0.00,CLR,,0.00,806.0,WeatherDisplay:10.37,2013-04-04 11:35:00,
2013-04-04 07:37:00,30.3,15.2,30.28,SSW,198,7.0,7.0,53,0.00,CLR,,0.00,18.0,WeatherDisplay:10.37,2013-04-04 11:37:00,
2013-04-04 07:40:00,48.5,20.7,30.14,WSW,248,8.0,15.0,33,0.00,CLR,,0.00,806.0,WeatherDisplay:10.37,2013-04-04 11:40:00,
2013-04-04 07:42:00,30.3,15.2,30.28,South,190,5.8,5.8,53,0.00,CLR,,0.00,21.0,WeatherDisplay:10.37,2013-04-04 11:42:00,
2013-04-04 07:45:00,49.3,20.6,30.13,SW,225,8.0,16.0,32,0.00,CLR,,0.00,818.0,WeatherDisplay:10.37,2013-04-04 11:45:00,
2013-04-04 07:47:00,30.5,15.4,30.27,SSW,192,6.0,6.0,53,0.00,CLR,,0.00,25.0,WeatherDisplay:10.37,2013-04-04 11:47:00,
2013-04-04 07:50:00,49.3,20.6,30.13,SSW,202,8.0,16.0,32,0.00,CLR,,0.00,818.0,WeatherDisplay:10.37,2013-04-04 11:50:00,
2013-04-04 07:53:00,30.5,15.4,30.27,South,190,6.9,6.9,53,0.00,CLR,,0.00,25.0,WeatherDisplay:10.37,2013-04-04 11:53:00,
2013-04-04 07:55:00,49.1,19.0,30.12,SW,215,10.0,17.0,30,0.00,CLR,,0.00,826.0,WeatherDisplay:10.37,2013-04-04 11:55:00,
2013-04-04 07:58:00,30.6,15.5,30.27,SSW,192,6.9,6.9,53,0.00,CLR,,0.00,32.0,WeatherDisplay:10.37,2013-04-04 11:58:00,
2013-04-04 08:00:00,49.1,19.0,30.12,SW,225,10.0,17.0,30,0.00,CLR,,0.00,826.0,WeatherDisplay:10.37,2013-04-04 12:00:00,
2013-04-04 08:03:00,30.9,15.3,30.27,SSW,210,9.2,9.2,52,0.00,CLR,,0.00,39.0,WeatherDisplay:10.37,2013-04-04 12:03:00,
2013-04-04 08:05:00,49.6,19.4,30.11,SW,225,10.0,16.0,30,0.00,CLR,,0.00,837.0,WeatherDisplay:10.37,2013-04-04 12:05:00,
2013-04-04 08:08:00,31.2,15.6,30.27,SSW,197,7.0,7.0,52,0.00,CLR,,0.00,63.0,WeatherDisplay:10.37,2013-04-04 12:08:00,
2013-04-04 08:10:00,49.6,19.4,30.11,SW,225,10.0,16.0,30,0.00,CLR,,0.00,837.0,WeatherDisplay:10.37,2013-04-04 12:10:00,
2013-04-04 08:13:00,31.5,15.9,30.27,SSW,194,7.0,7.0,52,0.00,CLR,,0.00,70.0,WeatherDisplay:10.37,2013-04-04 12:13:00,
2013-04-04 08:15:00,50.0,20.5,30.11,SW,225,9.0,16.0,31,0.00,CLR,,0.00,847.0,WeatherDisplay:10.37,2013-04-04 12:15:00,
2013-04-04 08:18:00,31.8,15.7,30.26,South,188,5.8,5.8,51,0.00,CLR,,0.00,72.0,WeatherDisplay:10.37,2013-04-04 12:18:00,
2013-04-04 08:20:00,50.0,20.5,30.11,SW,225,9.0,16.0,31,0.00,CLR,,0.00,847.0,WeatherDisplay:10.37,2013-04-04 12:20:00,
2013-04-04 08:23:00,32.2,15.6,30.27,South,170,8.1,8.1,50,0.00,CLR,,0.00,62.0,WeatherDisplay:10.37,2013-04-04 12:23:00,
2013-04-04 08:25:00,50.1,19.8,30.10,WSW,237,10.0,17.0,30,0.00,CLR,,0.00,853.0,WeatherDisplay:10.37,2013-04-04 12:25:00,
2013-04-04 08:28:00,32.6,16.0,30.26,SSW,203,9.2,9.2,50,0.00,CLR,,0.00,79.0,WeatherDisplay:10.37,2013-04-04 12:28:00,
2013-04-04 08:30:00,50.1,19.8,30.10,WSW,248,10.0,17.0,30,0.00,CLR,,0.00,853.0,WeatherDisplay:10.37,2013-04-04 12:30:00,
2013-04-04 08:33:00,33.0,15.9,30.26,SSW,209,8.1,8.1,49,0.00,CLR,,0.00,90.0,WeatherDisplay:10.37,2013-04-04 12:33:00,
2013-04-04 08:35:00,51.2,19.2,30.10,WSW,237,9.0,19.0,28,0.00,CLR,,0.00,858.0,WeatherDisplay:10.37,2013-04-04 12:35:00,
2013-04-04 08:38:00,33.4,16.3,30.26,SSW,201,11.5,11.5,49,0.00,CLR,,0.00,107.0,WeatherDisplay:10.37,2013-04-04 12:38:00,
2013-04-04 08:40:00,51.2,19.2,30.10,SW,225,9.0,19.0,28,0.00,CLR,,0.00,858.0,WeatherDisplay:10.37,2013-04-04 12:40:00,
2013-04-04 08:43:00,33.7,16.1,30.26,SW,223,11.5,11.5,48,0.00,CLR,,0.00,123.0,WeatherDisplay:10.37,2013-04-04 12:43:00,
2013-04-04 08:45:00,51.3,20.1,30.09,SW,225,9.0,20.0,29,0.00,CLR,,0.00,862.0,WeatherDisplay:10.37,2013-04-04 12:45:00,
2013-04-04 08:48:00,34.0,15.9,30.26,SW,219,12.7,12.7,47,0.00,CLR,,0.00,67.0,WeatherDisplay:10.37,2013-04-04 12:48:00,
2013-04-04 08:50:00,51.3,20.1,30.09,SW,225,9.0,20.0,29,0.00,CLR,,0.00,862.0,WeatherDisplay:10.37,2013-04-04 12:50:00,
2013-04-04 08:53:00,34.2,16.0,30.25,South,181,11.5,11.5,47,0.00,CLR,,0.00,139.0,WeatherDisplay:10.37,2013-04-04 12:53:00,
2013-04-04 08:55:00,51.9,19.8,30.09,SSW,205,7.0,17.0,28,0.00,CLR,,0.00,863.0,WeatherDisplay:10.37,2013-04-04 12:55:00,
2013-04-04 08:58:00,34.5,16.8,30.26,SSW,213,11.0,11.0,48,0.00,CLR,,0.00,127.0,WeatherDisplay:10.37,2013-04-04 12:58:00,
2013-04-04 09:00:00,51.9,19.8,30.09,South,180,7.0,17.0,28,0.00,CLR,,0.00,863.0,WeatherDisplay:10.37,2013-04-04 13:00:00,
2013-04-04 09:03:00,34.7,16.5,30.25,SSW,195,8.1,8.1,47,0.00,OVC,,0.00,214.0,WeatherDisplay:10.37,2013-04-04 13:03:00,
2013-04-04 09:05:00,51.8,18.8,30.08,SSW,205,9.0,19.0,27,0.00,CLR,,0.00,867.0,WeatherDisplay:10.37,2013-04-04 13:05:00,
2013-04-04 09:08:00,35.1,16.9,30.25,SW,228,11.5,11.5,47,0.00,OVC,,0.00,218.0,WeatherDisplay:10.37,2013-04-04 13:08:00,
2013-04-04 09:10:00,51.8,18.8,30.08,SW,225,9.0,19.0,27,0.00,CLR,,0.00,867.0,WeatherDisplay:10.37,2013-04-04 13:10:00,
2013-04-04 09:13:00,35.4,17.1,30.25,WSW,256,10.0,10.0,47,0.00,OVC,,0.00,121.0,WeatherDisplay:10.37,2013-04-04 13:13:00,
2013-04-04 09:15:00,51.9,18.9,30.07,WSW,237,10.0,19.0,27,0.00,CLR,,0.00,863.0,WeatherDisplay:10.37,2013-04-04 13:15:00,
2013-04-04 09:18:00,35.7,17.4,30.25,SSW,205,15.0,15.0,47,0.00,OVC,,0.00,197.0,WeatherDisplay:10.37,2013-04-04 13:18:00,
2013-04-04 09:20:00,51.9,18.9,30.07,WSW,248,10.0,19.0,27,0.00,CLR,,0.00,863.0,WeatherDisplay:10.37,2013-04-04 13:20:00,
2013-04-04 09:23:00,36.1,17.3,30.24,SW,234,15.0,15.0,46,0.00,OVC,,0.00,216.0,WeatherDisplay:10.37,2013-04-04 13:23:00,
2013-04-04 09:25:00,52.4,18.5,30.07,WSW,248,9.0,18.0,26,0.00,CLR,,0.00,860.0,WeatherDisplay:10.37,2013-04-04 13:25:00,
2013-04-04 09:28:00,36.3,17.0,30.24,South,189,16.1,16.1,45,0.00,OVC,,0.00,213.0,WeatherDisplay:10.37,2013-04-04 13:28:00,
2013-04-04 09:30:00,52.4,18.5,30.07,WSW,248,9.0,18.0,26,0.00,CLR,,0.00,860.0,WeatherDisplay:10.37,2013-04-04 13:30:00,
2013-04-04 09:33:00,36.6,17.2,30.23,SSW,211,12.7,12.7,45,0.00,OVC,,0.00,278.0,WeatherDisplay:10.37,2013-04-04 13:33:00,
2013-04-04 09:35:00,52.8,19.7,30.06,WSW,248,10.0,18.0,27,0.00,CLR,,0.00,855.0,WeatherDisplay:10.37,2013-04-04 13:35:00,
2013-04-04 09:38:00,37.0,17.1,30.23,SW,219,12.7,12.7,44,0.00,OVC,,0.00,294.0,WeatherDisplay:10.37,2013-04-04 13:38:00,
2013-04-04 09:40:00,52.8,19.7,30.06,WSW,248,10.0,18.0,27,0.00,CLR,,0.00,855.0,WeatherDisplay:10.37,2013-04-04 13:40:00,
2013-04-04 09:43:00,37.4,17.4,30.23,SW,222,16.1,16.1,44,0.00,OVC,,0.00,380.0,WeatherDisplay:10.37,2013-04-04 13:43:00,
2013-04-04 09:45:00,53.2,20.0,30.05,WSW,248,9.0,19.0,27,0.00,CLR,,0.00,851.0,WeatherDisplay:10.37,2013-04-04 13:45:00,
2013-04-04 09:48:00,37.9,17.9,30.22,SW,219,12.7,12.7,44,0.00,OVC,,0.00,404.0,WeatherDisplay:10.37,2013-04-04 13:48:00,
2013-04-04 09:50:00,53.2,20.0,30.05,WSW,248,9.0,19.0,27,0.00,CLR,,0.00,851.0,WeatherDisplay:10.37,2013-04-04 13:50:00,
2013-04-04 09:53:00,38.5,18.4,30.22,SW,221,10.4,10.4,44,0.00,OVC,,0.00,417.0,WeatherDisplay:10.37,2013-04-04 13:53:00,
2013-04-04 09:55:00,53.6,19.5,30.05,SW,226,8.0,18.0,26,0.00,CLR,,0.00,845.0,WeatherDisplay:10.37,2013-04-04 13:55:00,
2013-04-04 09:58:00,38.8,17.6,30.22,SW,217,13.0,13.0,42,0.00,OVC,,0.00,431.0,WeatherDisplay:10.37,2013-04-04 13:58:00,
2013-04-04 10:00:00,53.6,19.5,30.05,SSW,202,8.0,18.0,26,0.00,CLR,,0.00,845.0,WeatherDisplay:10.37,2013-04-04 14:00:00,
2013-04-04 10:03:00,39.1,17.4,30.22,SW,223,17.3,17.3,41,0.00,OVC,,0.00,448.0,WeatherDisplay:10.37,2013-04-04 14:03:00,
2013-04-04 10:05:00,53.8,19.7,30.04,SW,223,7.0,13.0,26,0.00,CLR,,0.00,837.0,WeatherDisplay:10.37,2013-04-04 14:05:00,
2013-04-04 10:08:00,39.5,18.3,30.22,SW,216,11.5,11.5,42,0.00,OVC,,0.00,466.0,WeatherDisplay:10.37,2013-04-04 14:08:00,
2013-04-04 10:10:00,53.8,19.7,30.04,WSW,248,7.0,13.0,26,0.00,CLR,,0.00,837.0,WeatherDisplay:10.37,2013-04-04 14:10:00,
2013-04-04 10:13:00,40.0,17.6,30.22,SSW,213,12.7,12.7,40,0.00,OVC,,0.00,482.0,WeatherDisplay:10.37,2013-04-04 14:13:00,
2013-04-04 10:15:00,54.6,21.2,30.03,WSW,248,6.0,13.0,27,0.00,CLR,,0.00,828.0,WeatherDisplay:10.37,2013-04-04 14:15:00,
2013-04-04 10:18:00,40.5,17.5,30.21,WSW,240,11.5,11.5,39,0.00,OVC,,0.00,499.0,WeatherDisplay:10.37,2013-04-04 14:18:00,
2013-04-04 10:20:00,54.6,21.2,30.03,WSW,248,6.0,13.0,27,0.00,CLR,,0.00,828.0,WeatherDisplay:10.37,2013-04-04 14:20:00,
2013-04-04 10:23:00,40.9,17.8,30.21,SSW,211,12.0,12.0,39,0.00,OVC,,0.00,517.0,WeatherDisplay:10.37,2013-04-04 14:23:00,
2013-04-04 10:25:00,54.5,18.4,30.03,WSW,248,8.0,15.0,24,0.00,CLR,,0.00,815.0,WeatherDisplay:10.37,2013-04-04 14:25:00,
2013-04-04 10:28:00,41.5,18.9,30.21,SW,215,8.1,8.1,40,0.00,OVC,,0.00,533.0,WeatherDisplay:10.37,2013-04-04 14:28:00,
2013-04-04 10:30:00,54.5,18.4,30.03,WSW,248,8.0,15.0,24,0.00,CLR,,0.00,815.0,WeatherDisplay:10.37,2013-04-04 14:30:00,
2013-04-04 10:33:00,42.0,18.8,30.20,SSW,209,6.9,6.9,39,0.00,OVC,,0.00,545.0,WeatherDisplay:10.37,2013-04-04 14:33:00,
2013-04-04 10:35:00,54.7,19.5,30.02,SW,235,10.0,20.0,25,0.00,CLR,,0.00,806.0,WeatherDisplay:10.37,2013-04-04 14:35:00,
2013-04-04 10:38:00,42.4,18.6,30.20,SSW,207,12.7,12.7,38,0.00,OVC,,0.00,557.0,WeatherDisplay:10.37,2013-04-04 14:38:00,
2013-04-04 10:40:00,54.7,19.5,30.02,SW,225,10.0,20.0,25,0.00,CLR,,0.00,806.0,WeatherDisplay:10.37,2013-04-04 14:40:00,
2013-04-04 10:43:00,42.7,18.2,30.20,WSW,257,11.5,11.5,37,0.00,OVC,,0.00,575.0,WeatherDisplay:10.37,2013-04-04 14:43:00,
2013-04-04 10:45:00,54.6,18.5,30.02,SW,236,10.0,23.0,24,0.00,CLR,,0.00,791.0,WeatherDisplay:10.37,2013-04-04 14:45:00,
2013-04-04 10:50:00,54.6,18.5,30.02,WSW,248,10.0,23.0,24,0.00,CLR,,0.00,791.0,WeatherDisplay:10.37,2013-04-04 14:50:00,
2013-04-04 10:55:00,54.6,18.5,30.01,WSW,248,9.0,18.0,24,0.00,CLR,,0.00,773.0,WeatherDisplay:10.37,2013-04-04 14:55:00,
2013-04-04 11:00:00,54.6,18.5,30.01,WSW,248,9.0,18.0,24,0.00,CLR,,0.00,773.0,WeatherDisplay:10.37,2013-04-04 15:00:00,
2013-04-04 11:05:00,55.1,18.9,30.01,WSW,248,9.0,17.0,24,0.00,CLR,,0.00,754.0,WeatherDisplay:10.37,2013-04-04 15:05:00,
2013-04-04 11:10:00,55.1,18.9,30.01,WSW,248,9.0,17.0,24,0.00,CLR,,0.00,754.0,WeatherDisplay:10.37,2013-04-04 15:10:00,
2013-04-04 11:15:00,55.5,20.2,30.00,WSW,248,9.0,17.0,25,0.00,CLR,,0.00,735.0,WeatherDisplay:10.37,2013-04-04 15:15:00,
2013-04-04 11:20:00,55.5,20.2,30.00,WSW,248,9.0,17.0,25,0.00,CLR,,0.00,735.0,WeatherDisplay:10.37,2013-04-04 15:20:00,
2013-04-04 11:25:00,55.4,18.2,29.99,SW,236,9.0,18.0,23,0.00,CLR,,0.00,713.0,WeatherDisplay:10.37,2013-04-04 15:25:00,
2013-04-04 11:30:00,55.4,18.2,29.99,SW,225,9.0,18.0,23,0.00,CLR,,0.00,713.0,WeatherDisplay:10.37,2013-04-04 15:30:00,
2013-04-04 11:35:00,56.0,18.7,29.99,SW,225,9.0,17.0,23,0.00,CLR,,0.00,690.0,WeatherDisplay:10.37,2013-04-04 15:35:00,
2013-04-04 11:40:00,56.0,18.7,29.99,SW,225,9.0,17.0,23,0.00,CLR,,0.00,690.0,WeatherDisplay:10.37,2013-04-04 15:40:00,
2013-04-04 11:45:00,56.0,18.7,29.98,SSW,213,9.0,16.0,23,0.00,CLR,,0.00,667.0,WeatherDisplay:10.37,2013-04-04 15:45:00,
2013-04-04 11:50:00,56.0,18.7,29.98,SSW,202,9.0,16.0,23,0.00,CLR,,0.00,667.0,WeatherDisplay:10.37,2013-04-04 15:50:00,
2013-04-04 11:55:00,55.8,19.5,29.98,SW,225,9.0,20.0,24,0.00,FEW,,0.00,644.0,WeatherDisplay:10.37,2013-04-04 15:55:00,
2013-04-04 12:00:00,55.8,19.5,29.98,WSW,248,9.0,20.0,24,0.00,FEW,,0.00,644.0,WeatherDisplay:10.37,2013-04-04 16:00:00,
2013-04-04 12:05:00,55.8,17.5,29.97,SW,235,12.0,22.0,22,0.00,FEW,,0.00,614.0,WeatherDisplay:10.37,2013-04-04 16:05:00,
2013-04-04 12:10:00,55.8,17.5,29.97,SW,225,12.0,22.0,22,0.00,FEW,,0.00,614.0,WeatherDisplay:10.37,2013-04-04 16:10:00,
2013-04-04 12:15:00,55.7,17.4,29.97,SW,225,12.0,22.0,22,0.00,SCT,,0.00,587.0,WeatherDisplay:10.37,2013-04-04 16:15:00,
2013-04-04 12:20:00,55.7,17.4,29.97,SW,225,12.0,22.0,22,0.00,SCT,,0.00,587.0,WeatherDisplay:10.37,2013-04-04 16:20:00,
2013-04-04 12:25:00,55.9,18.6,29.97,SW,236,10.0,19.0,23,0.00,SCT,,0.00,555.0,WeatherDisplay:10.37,2013-04-04 16:25:00,
2013-04-04 12:30:00,55.9,18.6,29.97,WSW,248,10.0,19.0,23,0.00,SCT,,0.00,555.0,WeatherDisplay:10.37,2013-04-04 16:30:00,
2013-04-04 12:35:00,56.4,19.0,29.97,WSW,248,9.0,18.0,23,0.00,SCT,,0.00,524.0,WeatherDisplay:10.37,2013-04-04 16:35:00,
2013-04-04 12:40:00,56.4,19.0,29.97,WSW,248,9.0,18.0,23,0.00,SCT,,0.00,524.0,WeatherDisplay:10.37,2013-04-04 16:40:00,
2013-04-04 12:45:00,56.4,20.0,29.97,SW,236,10.0,18.0,24,0.00,SCT,,0.00,494.0,WeatherDisplay:10.37,2013-04-04 16:45:00,
2013-04-04 12:50:00,56.4,20.0,29.97,SW,225,10.0,18.0,24,0.00,SCT,,0.00,494.0,WeatherDisplay:10.37,2013-04-04 16:50:00,
2013-04-04 17:51:00,56.4,19.0,29.96,WSW,255,18.4,18.4,23,0.00,SCT,,0.00,445.0,WeatherDisplay:10.37,2013-04-04 21:51:00,
2013-04-04 17:56:00,56.1,18.8,29.96,WSW,247,15.0,15.0,23,0.00,BKN,,0.00,432.0,WeatherDisplay:10.37,2013-04-04 21:56:00,
2013-04-04 18:01:00,56.1,19.8,29.96,West,263,15.0,15.0,24,0.00,BKN,,0.00,410.0,WeatherDisplay:10.37,2013-04-04 22:01:00,
2013-04-04 18:06:00,55.9,18.6,29.96,WSW,250,16.1,16.1,23,0.00,BKN,,0.00,396.0,WeatherDisplay:10.37,2013-04-04 22:06:00,
2013-04-04 18:12:00,55.5,19.2,29.96,SW,231,12.7,12.7,24,0.00,BKN,,0.00,373.0,WeatherDisplay:10.37,2013-04-04 22:12:00,
2013-04-04 18:17:00,55.4,19.2,29.96,West,277,11.5,11.5,24,0.00,BKN,,0.00,352.0,WeatherDisplay:10.37,2013-04-04 22:17:00,
2013-04-04 18:22:00,55.6,19.3,29.96,SW,223,16.1,16.1,24,0.00,BKN,,0.00,334.0,WeatherDisplay:10.37,2013-04-04 22:22:00,
2013-04-04 18:27:00,55.4,19.2,29.96,SW,220,18.4,18.4,24,0.00,BKN,,0.00,311.0,WeatherDisplay:10.37,2013-04-04 22:27:00,
2013-04-04 18:32:00,55.3,20.0,29.96,SW,221,15.0,15.0,25,0.00,BKN,,0.00,262.0,WeatherDisplay:10.37,2013-04-04 22:32:00,
2013-04-04 18:37:00,55.3,19.1,29.96,WSW,254,13.0,13.0,24,0.00,BKN,,0.00,223.0,WeatherDisplay:10.37,2013-04-04 22:37:00,
2013-04-04 18:42:00,55.1,18.9,29.96,West,265,16.0,16.0,24,0.00,BKN,,0.00,199.0,WeatherDisplay:10.37,2013-04-04 22:42:00,
2013-04-04 18:47:00,55.0,19.8,29.96,WSW,255,15.0,15.0,25,0.00,BKN,,0.00,137.0,WeatherDisplay:10.37,2013-04-04 22:47:00,
2013-04-04 18:52:00,54.9,19.7,29.96,SW,229,15.0,15.0,25,0.00,BKN,,0.00,148.0,WeatherDisplay:10.37,2013-04-04 22:52:00,
2013-04-04 18:57:00,54.7,19.5,29.96,SW,219,14.0,14.0,25,0.00,BKN,,0.00,107.0,WeatherDisplay:10.37,2013-04-04 22:57:00,
2013-04-04 19:02:00,54.5,20.3,29.96,West,259,12.0,12.0,26,0.00,BKN,,0.00,139.0,WeatherDisplay:10.37,2013-04-04 23:02:00,
2013-04-04 19:07:00,54.4,20.2,29.96,WSW,246,7.0,7.0,26,0.00,BKN,,0.00,74.0,WeatherDisplay:10.37,2013-04-04 23:07:00,
2013-04-04 19:12:00,54.2,20.0,29.95,SW,230,12.7,12.7,26,0.00,BKN,,0.00,62.0,WeatherDisplay:10.37,2013-04-04 23:12:00,
2013-04-04 19:17:00,54.0,20.7,29.95,WSW,255,6.9,6.9,27,0.00,BKN,,0.00,62.0,WeatherDisplay:10.37,2013-04-04 23:17:00,
2013-04-04 19:22:00,53.8,19.7,29.95,SW,215,11.5,11.5,26,0.00,CLR,,0.00,39.0,WeatherDisplay:10.37,2013-04-04 23:22:00,
2013-04-04 19:27:00,53.6,20.4,29.95,SW,232,8.0,8.0,27,0.00,CLR,,0.00,33.0,WeatherDisplay:10.37,2013-04-04 23:27:00,
2013-04-04 19:32:00,53.3,20.1,29.95,SW,234,11.5,11.5,27,0.00,CLR,,0.00,30.0,WeatherDisplay:10.37,2013-04-04 23:32:00,
2013-04-04 19:37:00,53.1,20.0,29.95,SW,217,10.0,10.0,27,0.00,CLR,,0.00,23.0,WeatherDisplay:10.37,2013-04-04 23:37:00,
2013-04-04 19:42:00,52.8,20.5,29.95,WSW,250,8.1,8.1,28,0.00,CLR,,0.00,19.0,WeatherDisplay:10.37,2013-04-04 23:42:00,
2013-04-04 19:47:00,52.6,21.2,29.95,WSW,246,10.4,10.4,29,0.00,CLR,,0.00,14.0,WeatherDisplay:10.37,2013-04-04 23:47:00,
2013-04-04 19:52:00,52.2,20.9,29.95,SW,230,5.8,5.8,29,0.00,CLR,,0.00,9.0,WeatherDisplay:10.37,2013-04-04 23:52:00,
2013-04-04 19:57:00,51.9,20.6,29.95,WSW,249,5.8,5.8,29,0.00,CLR,,0.00,7.0,WeatherDisplay:10.37,2013-04-04 23:57:00,
2013-04-04 20:03:00,51.6,21.1,29.95,WSW,240,5.0,5.0,30,0.00,CLR,,0.00,0.0,WeatherDisplay:10.37,2013-04-05 00:03:00,
2013-04-04 20:08:00,51.3,20.9,29.94,SW,218,5.8,5.8,30,0.00,CLR,,0.00,0.0,WeatherDisplay:10.37,2013-04-05 00:08:00,
2013-04-04 20:13:00,50.9,21.3,29.94,WSW,238,6.9,6.9,31,0.00,CLR,,0.00,0.0,WeatherDisplay:10.37,2013-04-05 00:13:00,
2013-04-04 20:18:00,50.7,21.9,29.94,WSW,238,4.6,4.6,32,0.00,CLR,,0.00,0.0,WeatherDisplay:10.37,2013-04-05 00:18:00,
2013-04-04 20:23:00,50.5,20.9,29.94,WSW,252,4.0,4.0,31,0.00,CLR,,0.00,0.0,WeatherDisplay:10.37,2013-04-05 00:23:00,
2013-04-04 20:28:00,50.3,21.5,29.94,SSW,209,4.6,4.6,32,0.00,CLR,,0.00,0.0,WeatherDisplay:10.37,2013-04-05 00:28:00,
2013-04-04 20:33:00,50.0,21.3,29.94,WSW,250,4.6,4.6,32,0.00,CLR,,0.00,0.0,WeatherDisplay:10.37,2013-04-05 00:33:00,
2013-04-04 20:38:00,49.9,21.9,29.94,WSW,254,3.5,3.5,33,0.00,CLR,,0.00,0.0,WeatherDisplay:10.37,2013-04-05 00:38:00,
2013-04-04 20:43:00,49.7,21.7,29.94,WSW,240,4.0,4.0,33,0.00,CLR,,0.00,0.0,WeatherDisplay:10.37,2013-04-05 00:43:00,
2013-04-04 20:48:00,49.7,21.7,29.95,SW,227,3.5,3.5,33,0.00,CLR,,0.00,0.0,WeatherDisplay:10.37,2013-04-05 00:48:00,
2013-04-04 20:53:00,49.6,21.6,29.95,West,260,4.0,4.0,33,0.00,CLR,,0.00,0.0,WeatherDisplay:10.37,2013-04-05 00:53:00,
2013-04-04 20:58:00,49.4,21.5,29.95,West,259,3.5,3.5,33,0.00,CLR,,0.00,0.0,WeatherDisplay:10.37,2013-04-05 00:58:00,
2013-04-04 21:03:00,49.0,21.8,29.96,West,261,4.0,4.0,34,0.00,CLR,,0.00,0.0,WeatherDisplay:10.37,2013-04-05 01:03:00,
2013-04-04 21:08:00,48.7,22.2,29.96,West,276,3.5,3.5,35,0.00,CLR,,0.00,0.0,WeatherDisplay:10.37,2013-04-05 01:08:00,
2013-04-04 21:13:00,48.3,21.9,29.96,West,271,4.6,4.6,35,0.00,CLR,,0.00,0.0,WeatherDisplay:10.37,2013-04-05 01:13:00,
2013-04-04 21:18:00,48.2,21.8,29.96,West,272,5.8,5.8,35,0.00,CLR,,0.00,0.0,WeatherDisplay:10.37,2013-04-05 01:18:00,
2013-04-04 21:23:00,48.1,22.4,29.97,WNW,293,3.0,3.0,36,0.00,CLR,,0.00,0.0,WeatherDisplay:10.37,2013-04-05 01:23:00,
2013-04-04 21:28:00,47.8,22.8,29.97,WNW,297,5.8,5.8,37,0.00,CLR,,0.00,0.0,WeatherDisplay:10.37,2013-04-05 01:28:00,
2013-04-04 21:33:00,47.7,22.7,29.97,WNW,303,5.8,5.8,37,0.00,CLR,,0.00,0.0,WeatherDisplay:10.37,2013-04-05 01:33:00,
2013-04-04 21:38:00,47.8,22.8,29.97,WNW,293,7.0,7.0,37,0.00,CLR,,0.00,0.0,WeatherDisplay:10.37,2013-04-05 01:38:00,
2013-04-04 21:43:00,47.9,22.8,29.97,WNW,292,9.0,9.0,37,0.00,CLR,,0.00,0.0,WeatherDisplay:10.37,2013-04-05 01:43:00,
2013-04-04 21:48:00,48.1,23.0,29.97,WNW,302,10.0,10.0,37,0.00,CLR,,0.00,0.0,WeatherDisplay:10.37,2013-04-05 01:48:00,
2013-04-04 21:53:00,48.2,23.1,29.97,NW,309,9.2,9.2,37,0.00,CLR,,0.00,0.0,WeatherDisplay:10.37,2013-04-05 01:53:00,
2013-04-04 21:59:00,48.3,23.2,29.97,WNW,297,9.2,9.2,37,0.00,CLR,,0.00,0.0,WeatherDisplay:10.37,2013-04-05 01:59:00,
2013-04-04 22:04:00,48.3,23.2,29.98,West,272,9.2,9.2,37,0.00,CLR,,0.00,0.0,WeatherDisplay:10.37,2013-04-05 02:04:00,
2013-04-04 22:09:00,48.3,23.2,29.98,West,269,8.1,8.1,37,0.00,CLR,,0.00,0.0,WeatherDisplay:10.37,2013-04-05 02:09:00,
2013-04-04 22:14:00,48.3,23.2,29.98,NW,311,5.8,5.8,37,0.00,CLR,,0.00,0.0,WeatherDisplay:10.37,2013-04-05 02:14:00,
2013-04-04 22:20:00,48.2,23.1,29.98,WNW,294,7.0,7.0,37,0.00,CLR,,0.00,0.0,WeatherDisplay:10.37,2013-04-05 02:20:00,
2013-04-04 22:25:00,48.2,23.1,29.97,West,279,8.1,8.1,37,0.00,CLR,,0.00,0.0,WeatherDisplay:10.37,2013-04-05 02:25:00,
2013-04-04 22:30:00,48.1,23.7,29.97,WNW,286,5.8,5.8,38,0.00,CLR,,0.00,0.0,WeatherDisplay:10.37,2013-04-05 02:30:00,
2013-04-04 22:35:00,48.1,23.7,29.97,WNW,296,6.9,6.9,38,0.00,CLR,,0.00,0.0,WeatherDisplay:10.37,2013-04-05 02:35:00,
2013-04-04 22:40:00,48.0,23.6,29.97,NW,304,4.6,4.6,38,0.00,CLR,,0.00,0.0,WeatherDisplay:10.37,2013-04-05 02:40:00,
2013-04-04 22:45:00,47.9,22.8,29.97,WNW,288,7.0,7.0,37,0.00,CLR,,0.00,0.0,WeatherDisplay:10.37,2013-04-05 02:45:00,
2013-04-04 22:50:00,47.9,22.8,29.96,NNW,331,8.0,8.0,37,0.00,CLR,,0.00,0.0,WeatherDisplay:10.37,2013-04-05 02:50:00,
2013-04-04 22:55:00,47.8,23.4,29.96,WNW,293,3.5,3.5,38,0.00,CLR,,0.00,0.0,WeatherDisplay:10.37,2013-04-05 02:55:00,
2013-04-04 23:00:00,47.7,23.3,29.96,WNW,289,3.5,3.5,38,0.00,CLR,,0.00,0.0,WeatherDisplay:10.37,2013-04-05 03:00:00,
2013-04-04 23:05:00,47.6,23.2,29.96,WNW,286,3.5,3.5,38,0.00,CLR,,0.00,0.0,WeatherDisplay:10.37,2013-04-05 03:05:00,
2013-04-04 23:10:00,47.4,23.7,29.96,WNW,287,1.0,2.0,39,0.00,CLR,,0.00,0.0,WeatherDisplay:10.37,2013-04-05 03:10:00,
2013-04-04 23:15:00,47.3,23.5,29.96,WNW,286,1.0,3.0,39,0.00,CLR,,0.00,0.0,WeatherDisplay:10.37,2013-04-05 03:15:00,
2013-04-04 23:20:00,47.2,24.1,29.95,West,273,2.0,3.0,40,0.00,CLR,,0.00,0.0,WeatherDisplay:10.37,2013-04-05 03:20:00,
2013-04-04 23:25:00,47.1,24.0,29.95,West,276,3.5,3.5,40,0.00,CLR,,0.00,0.0,WeatherDisplay:10.37,2013-04-05 03:25:00,
2013-04-04 23:30:00,47.0,23.3,29.95,West,261,1.0,6.0,39,0.00,CLR,,0.00,0.0,WeatherDisplay:10.37,2013-04-05 03:30:00,
2013-04-04 23:35:00,47.0,23.9,29.95,West,270,1.0,4.0,40,0.00,CLR,,0.00,0.0,WeatherDisplay:10.37,2013-04-05 03:35:00,
2013-04-04 23:40:00,46.9,23.8,29.95,WNW,299,2.0,4.0,40,0.00,CLR,,0.00,0.0,WeatherDisplay:10.37,2013-04-05 03:40:00,
2013-04-04 23:45:00,46.7,23.6,29.95,NW,313,1.0,3.0,40,0.00,CLR,,0.00,0.0,WeatherDisplay:10.37,2013-04-05 03:45:00,
2013-04-04 23:50:00,46.5,23.4,29.95,NW,313,0.0,2.0,40,0.00,CLR,,0.00,0.0,WeatherDisplay:10.37,2013-04-05 03:50:00,
2013-04-04 23:55:00,46.3,23.3,29.95,NW,312,0.0,1.0,40,0.00,CLR,,0.00,0.0,WeatherDisplay:10.37,2013-04-05 03:55:00,